createdAt,value
2018-08-18T00:02:06.444Z,100576.57
2018-08-18T00:07:10.027Z,100572.20
2018-08-18T00:12:18.877Z,100565.84
2018-08-18T00:17:22.357Z,100554.05
2018-08-18T00:22:25.841Z,100564.91
2018-08-18T00:27:29.465Z,100570.31
2018-08-18T00:32:33.064Z,100570.76
2018-08-18T00:37:36.896Z,100557.92
2018-08-18T00:42:41.023Z,100555.39
2018-08-18T00:47:44.577Z,100552.42
2018-08-18T00:52:48.085Z,100555.66
2018-08-18T00:57:51.584Z,100554.44
2018-08-18T01:02:55.129Z,100555.34
2018-08-18T01:07:58.699Z,100567.30
2018-08-18T01:13:02.324Z,100561.36
2018-08-18T01:18:06.078Z,100567.13
2018-08-18T01:23:09.629Z,100567.39
2018-08-18T01:28:13.178Z,100563.20
2018-08-18T01:33:16.890Z,100571.23
2018-08-18T01:38:20.366Z,100574.64
2018-08-18T01:43:23.813Z,100579.44
2018-08-18T01:48:27.331Z,100568.55
2018-08-18T01:53:30.952Z,100558.78
2018-08-18T01:58:34.492Z,100559.66
2018-08-18T02:03:38.145Z,100560.88
2018-08-18T02:08:56.045Z,100554.68
2018-08-18T02:13:59.585Z,100549.70
2018-08-18T02:19:03.029Z,100545.69
2018-08-18T02:24:07.084Z,100536.36
2018-08-18T02:29:10.730Z,100529.76
2018-08-18T02:34:14.250Z,100521.56
2018-08-18T02:39:17.906Z,100525.39
2018-08-18T02:44:21.378Z,100522.16
2018-08-18T02:49:26.381Z,100522.78
2018-08-18T02:54:34.038Z,100530.98
2018-08-18T02:59:37.842Z,100532.37
2018-08-18T03:04:46.759Z,100530.78
2018-08-18T03:09:50.511Z,100527.23
2018-08-18T03:14:54.127Z,100527.23
2018-08-18T03:19:57.611Z,100526.80
2018-08-18T03:25:01.270Z,100534.65
2018-08-18T03:30:05.899Z,100538.05
2018-08-18T03:35:10.008Z,100546.42
2018-08-18T03:40:13.522Z,100557.42
2018-08-18T03:45:17.638Z,100568.06
2018-08-18T03:50:21.761Z,100570.85
2018-08-18T03:55:39.300Z,100572.80
2018-08-18T04:00:43.274Z,100578.99
2018-08-18T04:05:47.571Z,100578.20
2018-08-18T04:10:51.637Z,100582.69
2018-08-18T04:15:55.122Z,100592.71
2018-08-18T04:20:58.715Z,100602.05
2018-08-18T04:26:02.961Z,100606.61
2018-08-18T04:31:07.926Z,100616.09
2018-08-18T04:36:11.572Z,100620.45
2018-08-18T04:41:15.400Z,100630.94
2018-08-18T04:46:19.315Z,100637.73
2018-08-18T04:51:23.816Z,100642.25
2018-08-18T04:56:27.801Z,100642.71
2018-08-18T05:01:31.533Z,100647.22
2018-08-18T05:06:36.305Z,100651.88
2018-08-18T05:11:40.343Z,100657.45
2018-08-18T05:16:43.960Z,100651.41
2018-08-18T05:21:47.711Z,100660.92
2018-08-18T05:26:52.353Z,100662.42
2018-08-18T05:31:56.108Z,100672.52
2018-08-18T05:37:00.594Z,100672.70
2018-08-18T05:42:04.715Z,100667.29
2018-08-18T05:47:09.065Z,100672.88
2018-08-18T05:52:13.249Z,100675.84
2018-08-18T05:57:17.041Z,100675.41
2018-08-18T06:02:21.345Z,100682.11
2018-08-18T06:07:26.312Z,100685.42
2018-08-18T06:12:30.277Z,100686.02
2018-08-18T06:17:34.158Z,100696.25
2018-08-18T06:22:38.344Z,100705.59
2018-08-18T06:27:44.037Z,100714.05
2018-08-18T06:32:47.570Z,100714.73
2018-08-18T06:37:56.394Z,100715.34
2018-08-18T06:42:59.928Z,100697.02
2018-08-18T06:48:19.761Z,100707.77
2018-08-18T06:53:23.544Z,100709.77
2018-08-18T06:58:27.294Z,100716.06
2018-08-18T07:03:35.348Z,100718.41
2018-08-18T07:08:44.223Z,100725.33
2018-08-18T07:13:48.154Z,100731.05
2018-08-18T07:18:51.681Z,100735.94
2018-08-18T07:23:55.590Z,100736.36
2018-08-18T07:28:59.964Z,100736.98
2018-08-18T07:34:03.524Z,100743.25
2018-08-18T07:39:08.679Z,100743.34
2018-08-18T07:44:12.365Z,100741.70
2018-08-18T07:49:15.942Z,100753.00
2018-08-18T07:54:19.353Z,100764.78
2018-08-18T07:59:22.885Z,100768.08
2018-08-18T08:04:28.327Z,100775.90
2018-08-18T08:09:31.913Z,100774.02
2018-08-18T08:14:35.559Z,100768.52
2018-08-18T08:19:38.993Z,100766.35
2018-08-18T08:24:43.265Z,100763.14
2018-08-18T08:29:48.028Z,100767.34
2018-08-18T08:34:51.773Z,100768.99
2018-08-18T08:39:55.635Z,100773.19
2018-08-18T08:44:59.720Z,100769.61
2018-08-18T08:50:03.704Z,100772.08
2018-08-18T08:55:07.922Z,100778.63
2018-08-18T09:00:12.018Z,100778.09
2018-08-18T09:05:15.513Z,100777.81
2018-08-18T09:10:19.138Z,100785.78
2018-08-18T09:15:22.841Z,100782.00
2018-08-18T09:20:27.596Z,100781.74
2018-08-18T09:25:32.559Z,100773.55
2018-08-18T09:30:36.122Z,100786.29
2018-08-18T09:35:54.571Z,100784.39
2018-08-18T09:40:58.364Z,100779.30
2018-08-18T09:46:01.995Z,100780.02
2018-08-18T09:51:05.564Z,100772.68
2018-08-18T09:56:09.317Z,100774.50
2018-08-18T10:01:12.798Z,100764.53
2018-08-18T10:06:16.690Z,100766.17
2018-08-18T10:11:20.181Z,100767.27
2018-08-18T10:16:24.477Z,100775.09
2018-08-18T10:21:28.084Z,100769.50
2018-08-18T10:26:31.769Z,100770.64
2018-08-18T10:31:36.772Z,100765.83
2018-08-18T10:36:40.198Z,100757.70
2018-08-18T10:41:55.559Z,100756.28
2018-08-18T10:47:10.490Z,100749.98
2018-08-18T10:52:25.984Z,100745.19
2018-08-18T10:57:41.157Z,100753.17
2018-08-18T11:02:46.440Z,100764.18
2018-08-18T11:07:56.476Z,100756.34
2018-08-18T11:13:00.145Z,100759.23
2018-08-18T11:18:03.736Z,100754.77
2018-08-18T11:23:10.714Z,100757.37
2018-08-18T11:28:15.248Z,100766.95
2018-08-18T11:33:35.774Z,100760.95
2018-08-18T11:38:39.355Z,100757.17
2018-08-18T11:43:50.208Z,100751.92
2018-08-18T11:48:53.691Z,100751.48
2018-08-18T11:54:01.635Z,100758.66
2018-08-18T11:59:14.758Z,100756.20
2018-08-18T12:04:20.358Z,100762.15
2018-08-18T12:09:24.832Z,100759.97
2018-08-18T12:14:28.287Z,100766.78
2018-08-18T12:19:32.085Z,100758.08
2018-08-18T12:24:35.603Z,100762.44
2018-08-18T12:29:39.262Z,100759.30
2018-08-18T12:34:42.827Z,100742.14
2018-08-18T12:39:46.358Z,100745.08
2018-08-18T12:44:51.088Z,100734.50
2018-08-18T12:49:55.035Z,100724.77
2018-08-18T12:54:58.481Z,100717.48
2018-08-18T13:00:01.893Z,100715.07
2018-08-18T13:05:05.446Z,100707.34
2018-08-18T13:10:23.150Z,100697.55
2018-08-18T13:15:26.629Z,100694.88
2018-08-18T13:20:30.221Z,100684.74
2018-08-18T13:25:33.735Z,100669.36
2018-08-18T13:30:37.197Z,100667.48
2018-08-18T13:35:40.889Z,100656.16
2018-08-18T13:40:44.444Z,100654.41
2018-08-18T13:45:47.968Z,100646.70
2018-08-18T13:50:51.549Z,100644.01
2018-08-18T14:00:58.613Z,100640.77
2018-08-18T14:06:02.271Z,100638.14
2018-08-18T14:11:05.836Z,100635.17
2018-08-18T14:16:09.577Z,100633.33
2018-08-18T14:21:13.101Z,100622.80
2018-08-18T14:26:16.629Z,100629.92
2018-08-18T14:31:20.198Z,100630.81
2018-08-18T14:36:24.071Z,100625.22
2018-08-18T14:41:44.295Z,100628.36
2018-08-18T14:46:48.022Z,100628.36
2018-08-18T14:51:51.852Z,100628.70
2018-08-18T14:56:55.442Z,100632.72
2018-08-18T15:01:59.292Z,100629.86
2018-08-18T15:07:03.369Z,100630.47
2018-08-18T15:12:07.649Z,100622.22
2018-08-18T15:17:11.109Z,100616.48
2018-08-18T15:22:14.681Z,100608.22
2018-08-18T15:27:18.677Z,100606.11
2018-08-18T15:32:22.215Z,100605.97
2018-08-18T15:37:25.698Z,100598.67
2018-08-18T15:42:29.112Z,100592.45
2018-08-18T15:47:32.768Z,100598.11
2018-08-18T15:52:36.444Z,100591.73
2018-08-18T15:57:39.891Z,100588.63
2018-08-18T16:02:43.321Z,100590.53
2018-08-18T16:07:46.765Z,100587.05
2018-08-18T16:12:50.979Z,100586.16
2018-08-18T16:17:54.877Z,100578.21
2018-08-18T16:22:59.475Z,100580.73
2018-08-18T16:28:03.579Z,100575.75
2018-08-18T16:33:13.846Z,100575.47
2018-08-18T16:38:17.412Z,100570.18
2018-08-18T16:43:26.799Z,100569.20
2018-08-18T16:48:31.145Z,100577.97
2018-08-18T16:53:34.977Z,100573.54
2018-08-18T16:58:39.493Z,100572.34
2018-08-18T17:03:43.134Z,100580.28
2018-08-18T17:08:47.177Z,100576.64
2018-08-18T17:13:50.673Z,100571.80
2018-08-18T17:18:54.113Z,100585.55
2018-08-18T17:23:57.757Z,100586.00
2018-08-18T17:29:01.200Z,100593.61
2018-08-18T17:34:04.817Z,100594.39
2018-08-18T17:39:08.314Z,100588.45
2018-08-18T17:44:11.833Z,100594.56
2018-08-18T17:49:15.308Z,100596.74
2018-08-18T17:54:18.742Z,100595.00
2018-08-18T17:59:22.764Z,100609.34
2018-08-18T18:04:27.943Z,100612.58
2018-08-18T18:09:33.033Z,100618.02
2018-08-18T18:14:36.830Z,100622.11
2018-08-18T18:19:40.285Z,100624.77
2018-08-18T18:24:44.454Z,100634.09
2018-08-18T18:29:48.071Z,100632.99
2018-08-18T18:34:51.584Z,100643.91
2018-08-18T18:40:02.654Z,100638.22
2018-08-18T18:45:08.377Z,100654.09
2018-08-18T18:50:14.229Z,100656.41
2018-08-18T18:55:18.235Z,100660.75
2018-08-18T19:00:21.712Z,100657.40
2018-08-18T19:05:26.212Z,100663.27
2018-08-18T19:10:30.150Z,100674.13
2018-08-18T19:15:33.694Z,100678.97
2018-08-18T19:20:37.277Z,100681.59
2018-08-18T19:25:42.153Z,100682.98
2018-08-18T19:30:45.794Z,100681.69
2018-08-18T19:35:51.037Z,100687.28
2018-08-18T19:40:55.864Z,100703.46
2018-08-18T19:45:59.538Z,100695.51
2018-08-18T19:51:03.076Z,100697.49
2018-08-18T19:56:10.870Z,100699.36
2018-08-18T20:01:14.417Z,100706.36
2018-08-18T20:06:20.980Z,100708.20
2018-08-18T20:11:24.805Z,100707.58
2018-08-18T20:16:28.329Z,100715.81
2018-08-18T20:21:32.021Z,100713.18
2018-08-18T20:26:35.632Z,100714.41
2018-08-18T20:31:43.355Z,100718.44
2018-08-18T20:36:46.887Z,100716.25
2018-08-18T20:41:50.621Z,100722.76
2018-08-18T20:46:54.333Z,100728.05
2018-08-18T20:51:59.341Z,100728.13
2018-08-18T20:57:04.451Z,100717.03
2018-08-18T21:02:08.689Z,100716.38
2018-08-18T21:07:12.439Z,100715.08
2018-08-18T21:12:16.119Z,100715.34
2018-08-18T21:17:19.773Z,100723.59
2018-08-18T21:22:27.772Z,100721.67
2018-08-18T21:27:31.202Z,100727.09
2018-08-18T21:32:35.033Z,100728.15
2018-08-18T21:37:38.896Z,100734.83
2018-08-18T21:42:42.673Z,100738.16
2018-08-18T21:47:46.225Z,100731.78
2018-08-18T21:52:49.892Z,100736.36
2018-08-18T21:57:56.420Z,100734.00
2018-08-18T22:02:59.977Z,100722.94
2018-08-18T22:08:03.473Z,100725.56
2018-08-18T22:13:07.329Z,100723.89
2018-08-18T22:18:10.825Z,100727.22
2018-08-18T22:23:14.339Z,100725.51
2018-08-18T22:28:18.728Z,100725.68
2018-08-18T22:33:23.094Z,100722.09
2018-08-18T22:38:26.668Z,100717.56
2018-08-18T22:43:35.117Z,100723.77
2018-08-18T22:48:38.858Z,100717.83
2018-08-18T22:53:46.169Z,100718.91
2018-08-18T22:58:56.379Z,100722.92
2018-08-18T23:04:00.081Z,100721.35
2018-08-18T23:09:04.039Z,100720.56
2018-08-18T23:14:07.596Z,100728.60
2018-08-18T23:19:11.121Z,100719.43
2018-08-18T23:24:27.659Z,100720.66
2018-08-18T23:29:31.356Z,100722.17
2018-08-18T23:34:34.974Z,100719.98
2018-08-18T23:39:38.761Z,100729.77
2018-08-18T23:44:42.405Z,100740.16
2018-08-18T23:49:46.363Z,100737.60
2018-08-18T23:54:49.869Z,100739.00
2018-08-18T23:59:53.517Z,100746.45
